createdAt,value
2023-08-19T00:01:30.800Z,100909.59
2023-08-19T00:04:03.304Z,100913.94
2023-08-19T00:06:37.247Z,100920.64
2023-08-19T00:09:11.165Z,100914.68
2023-08-19T00:11:43.389Z,100932.09
2023-08-19T00:14:15.554Z,100917.58
2023-08-19T00:16:48.147Z,100929.36
2023-08-19T00:19:20.726Z,100930.67
2023-08-19T00:21:53.555Z,100929.97
2023-08-19T00:24:26.122Z,100931.02
2023-08-19T00:26:59.292Z,100930.19
2023-08-19T00:29:31.921Z,100926.15
2023-08-19T00:32:04.689Z,100928.78
2023-08-19T00:34:45.490Z,100923.09
2023-08-19T00:37:17.880Z,100920.84
2023-08-19T00:39:51.143Z,100918.77
2023-08-19T00:42:23.682Z,100916.40
2023-08-19T00:44:55.900Z,100915.92
2023-08-19T00:47:28.723Z,100913.04
2023-08-19T00:50:02.229Z,100913.88
2023-08-19T00:52:35.779Z,100912.45
2023-08-19T00:55:10.197Z,100904.92
2023-08-19T00:57:42.800Z,100897.52
2023-08-19T01:00:16.619Z,100898.83
2023-08-19T01:02:49.010Z,100896.59
2023-08-19T01:05:24.357Z,100887.67
2023-08-19T01:08:01.250Z,100902.11
2023-08-19T01:10:39.181Z,100897.55
2023-08-19T01:13:15.953Z,100894.28
2023-08-19T01:15:59.638Z,100887.66
2023-08-19T01:18:33.209Z,100886.95
2023-08-19T01:21:06.122Z,100887.08
2023-08-19T01:23:44.738Z,100876.21
2023-08-19T01:26:16.879Z,100888.89
2023-08-19T01:28:49.978Z,100889.98
2023-08-19T01:31:22.492Z,100875.52
2023-08-19T01:33:55.124Z,100889.41
2023-08-19T01:36:35.486Z,100888.89
2023-08-19T01:39:12.183Z,100894.22
2023-08-19T01:41:45.643Z,100891.56
2023-08-19T01:44:18.258Z,100890.04
2023-08-19T01:46:50.595Z,100883.30
2023-08-19T01:49:23.832Z,100878.21
2023-08-19T01:51:56.784Z,100872.71
2023-08-19T01:54:29.425Z,100865.11
2023-08-19T01:57:02.391Z,100867.71
2023-08-19T01:59:34.683Z,100864.34
2023-08-19T02:02:07.281Z,100861.27
2023-08-19T02:04:39.624Z,100865.33
2023-08-19T02:07:11.876Z,100868.25
2023-08-19T02:09:46.336Z,100866.38
2023-08-19T02:12:18.715Z,100863.90
2023-08-19T02:14:51.141Z,100862.04
2023-08-19T02:17:23.771Z,100858.81
2023-08-19T02:19:56.202Z,100859.50
2023-08-19T02:22:28.542Z,100861.92
2023-08-19T02:25:00.865Z,100864.42
2023-08-19T02:27:35.329Z,100859.65
2023-08-19T02:30:11.511Z,100861.75
2023-08-19T02:32:44.083Z,100860.32
2023-08-19T02:35:18.015Z,100856.67
2023-08-19T02:37:50.219Z,100853.84
2023-08-19T02:40:22.866Z,100854.55
2023-08-19T02:42:55.034Z,100857.57
2023-08-19T02:45:29.262Z,100860.15
2023-08-19T02:48:02.687Z,100859.48
2023-08-19T02:50:35.048Z,100859.31
2023-08-19T02:53:07.583Z,100858.53
2023-08-19T02:55:44.053Z,100853.06
2023-08-19T02:58:18.012Z,100858.44
2023-08-19T03:00:50.926Z,100858.20
2023-08-19T03:03:23.272Z,100857.25
2023-08-19T03:05:58.824Z,100852.23
2023-08-19T03:08:31.250Z,100853.34
2023-08-19T03:11:03.553Z,100857.83
2023-08-19T03:13:36.607Z,100857.84
2023-08-19T03:16:09.392Z,100861.83
2023-08-19T03:18:41.592Z,100858.21
2023-08-19T03:21:14.452Z,100863.45
2023-08-19T03:23:46.930Z,100865.48
2023-08-19T03:26:20.092Z,100870.60
2023-08-19T03:28:52.887Z,100869.47
2023-08-19T03:31:25.841Z,100872.88
2023-08-19T03:33:58.313Z,100872.42
2023-08-19T03:36:31.005Z,100868.73
2023-08-19T03:39:03.817Z,100871.43
2023-08-19T03:41:36.001Z,100873.65
2023-08-19T03:44:09.054Z,100868.59
2023-08-19T03:46:41.191Z,100865.96
2023-08-19T03:49:13.419Z,100866.08
2023-08-19T03:51:45.677Z,100864.83
2023-08-19T03:54:18.329Z,100858.94
2023-08-19T03:56:51.069Z,100858.08
2023-08-19T03:59:24.847Z,100853.89
2023-08-19T04:01:57.685Z,100857.14
2023-08-19T04:04:30.050Z,100861.42
2023-08-19T04:07:02.246Z,100865.15
2023-08-19T04:09:34.651Z,100866.38
2023-08-19T04:12:09.529Z,100867.66
2023-08-19T04:14:41.928Z,100870.11
2023-08-19T04:17:14.730Z,100873.94
2023-08-19T04:19:47.151Z,100872.22
2023-08-19T04:22:19.989Z,100871.27
2023-08-19T04:24:55.131Z,100875.41
2023-08-19T04:27:27.961Z,100879.28
2023-08-19T04:30:01.190Z,100878.30
2023-08-19T04:32:34.520Z,100857.17
2023-08-19T04:35:08.683Z,100877.06
2023-08-19T04:37:41.859Z,100879.97
2023-08-19T04:40:15.387Z,100881.77
2023-08-19T04:42:49.818Z,100882.71
2023-08-19T04:45:22.889Z,100885.98
2023-08-19T04:47:55.228Z,100884.23
2023-08-19T04:50:27.960Z,100884.60
2023-08-19T04:53:00.447Z,100886.76
2023-08-19T04:55:33.263Z,100891.35
2023-08-19T04:58:05.892Z,100890.65
2023-08-19T05:00:38.707Z,100888.88
2023-08-19T05:03:11.122Z,100886.56
2023-08-19T05:05:44.222Z,100872.90
2023-08-19T05:08:17.250Z,100886.20
2023-08-19T05:10:49.880Z,100886.35
2023-08-19T05:13:22.780Z,100887.05
2023-08-19T05:15:56.112Z,100887.72
2023-08-19T05:18:28.422Z,100886.20
2023-08-19T05:21:00.864Z,100887.99
2023-08-19T05:23:33.284Z,100890.66
2023-08-19T05:26:05.731Z,100890.70
2023-08-19T05:28:38.320Z,100891.14
2023-08-19T05:31:10.837Z,100890.84
2023-08-19T05:33:43.459Z,100890.93
2023-08-19T05:36:16.011Z,100890.30
2023-08-19T05:38:48.150Z,100895.85
2023-08-19T05:41:20.406Z,100892.62
2023-08-19T05:43:52.600Z,100891.25
2023-08-19T05:46:25.261Z,100898.30
2023-08-19T05:48:57.765Z,100899.59
2023-08-19T05:51:30.795Z,100886.41
2023-08-19T05:54:04.234Z,100897.98
2023-08-19T05:56:36.669Z,100897.19
2023-08-19T05:59:09.480Z,100898.56
2023-08-19T06:01:41.863Z,100894.14
2023-08-19T06:04:14.276Z,100871.85
2023-08-19T06:06:46.696Z,100902.48
2023-08-19T06:09:19.015Z,100905.31
2023-08-19T06:11:52.791Z,100906.76
2023-08-19T06:14:25.017Z,100910.20
2023-08-19T06:16:57.434Z,100909.27
2023-08-19T06:19:29.950Z,100914.54
2023-08-19T06:22:02.272Z,100918.97
2023-08-19T06:24:34.450Z,100923.08
2023-08-19T06:27:07.554Z,100922.67
2023-08-19T06:29:40.408Z,100923.34
2023-08-19T06:32:14.787Z,100923.66
2023-08-19T06:34:47.876Z,100919.59
2023-08-19T06:37:22.739Z,100923.69
2023-08-19T06:39:59.769Z,100921.74
2023-08-19T06:42:32.735Z,100907.59
2023-08-19T06:45:06.786Z,100926.02
2023-08-19T06:47:42.222Z,100927.27
2023-08-19T06:50:16.698Z,100928.73
2023-08-19T06:52:50.054Z,100932.48
2023-08-19T06:55:23.490Z,100935.63
2023-08-19T06:58:04.939Z,100935.48
2023-08-19T07:00:39.552Z,100938.39
2023-08-19T07:03:14.477Z,100939.93
2023-08-19T07:05:47.782Z,100943.88
2023-08-19T07:08:22.371Z,100944.20
2023-08-19T07:10:55.427Z,100930.06
2023-08-19T07:13:28.632Z,100949.63
2023-08-19T07:16:04.558Z,100950.52
2023-08-19T07:18:40.502Z,100952.85
2023-08-19T07:21:16.154Z,100951.47
2023-08-19T07:23:49.763Z,100953.36
2023-08-19T07:26:22.821Z,100960.95
2023-08-19T07:28:56.636Z,100966.40
2023-08-19T07:31:31.992Z,100969.09
2023-08-19T07:34:05.662Z,100968.63
2023-08-19T07:36:37.976Z,100973.09
2023-08-19T07:39:10.617Z,100971.27
2023-08-19T07:41:43.447Z,100967.11
2023-08-19T07:44:15.643Z,100968.00
2023-08-19T07:46:48.296Z,100971.77
2023-08-19T07:49:20.954Z,100971.26
2023-08-19T07:51:53.705Z,100973.04
2023-08-19T07:54:26.372Z,100971.95
2023-08-19T07:57:00.181Z,100973.59
2023-08-19T07:59:32.891Z,100973.31
2023-08-19T08:02:05.840Z,100971.08
2023-08-19T08:04:38.459Z,100973.67
2023-08-19T08:07:10.936Z,100974.34
2023-08-19T08:09:45.109Z,100978.84
2023-08-19T08:12:17.656Z,100981.48
2023-08-19T08:14:50.177Z,100969.47
2023-08-19T08:17:22.233Z,100980.87
2023-08-19T08:19:54.526Z,100980.95
2023-08-19T08:22:26.735Z,100984.40
2023-08-19T08:25:00.298Z,100965.29
2023-08-19T08:27:32.936Z,100982.73
2023-08-19T08:30:06.726Z,100989.77
2023-08-19T08:32:39.318Z,100996.04
2023-08-19T08:35:11.992Z,100998.48
2023-08-19T08:37:44.533Z,100998.56
2023-08-19T08:40:17.261Z,101001.23
2023-08-19T08:42:49.974Z,101000.41
2023-08-19T08:45:25.625Z,100991.19
2023-08-19T08:47:58.323Z,101000.30
2023-08-19T08:50:30.923Z,101004.45
2023-08-19T08:53:03.876Z,101006.30
2023-08-19T08:55:36.645Z,101004.38
2023-08-19T08:58:08.902Z,101002.86
2023-08-19T09:00:42.445Z,100997.38
2023-08-19T09:03:16.407Z,100997.45
2023-08-19T09:05:53.822Z,100996.29
2023-08-19T09:08:33.383Z,100995.10
2023-08-19T09:11:07.328Z,100993.92
2023-08-19T09:13:40.387Z,100996.30
2023-08-19T09:16:13.002Z,100991.13
2023-08-19T09:18:47.077Z,100989.50
2023-08-19T09:21:19.551Z,100989.33
2023-08-19T09:23:51.680Z,100982.89
2023-08-19T09:26:24.139Z,100983.06
2023-08-19T09:28:59.962Z,100981.93
2023-08-19T09:31:33.758Z,100987.96
2023-08-19T09:34:06.479Z,100991.98
2023-08-19T09:36:38.514Z,100991.04
2023-08-19T09:39:10.716Z,100990.45
2023-08-19T09:41:43.009Z,100990.52
2023-08-19T09:44:18.827Z,100988.95
2023-08-19T09:46:51.521Z,100987.77
2023-08-19T09:49:25.578Z,100985.75
2023-08-19T09:51:58.626Z,100985.21
2023-08-19T09:54:31.266Z,100983.77
2023-08-19T09:57:03.417Z,100973.45
2023-08-19T09:59:35.646Z,100982.81
2023-08-19T10:02:10.474Z,100983.27
2023-08-19T10:04:43.016Z,100984.21
2023-08-19T10:07:19.156Z,100958.23
2023-08-19T10:09:53.318Z,100980.63
2023-08-19T10:12:26.473Z,100979.08
2023-08-19T10:15:00.929Z,100977.20
2023-08-19T10:17:35.971Z,100973.40
2023-08-19T10:20:13.331Z,100972.84
2023-08-19T10:22:51.728Z,100969.43
2023-08-19T10:25:25.352Z,100971.57
2023-08-19T10:28:12.720Z,100966.70
2023-08-19T10:30:45.189Z,100964.77
2023-08-19T10:33:40.634Z,100963.14
2023-08-19T10:36:16.308Z,100951.62
2023-08-19T10:38:51.456Z,100961.04
2023-08-19T10:41:27.996Z,100957.27
2023-08-19T10:44:04.974Z,100958.86
2023-08-19T10:46:38.967Z,100956.33
2023-08-19T10:49:13.896Z,100960.39
2023-08-19T10:51:54.964Z,100957.92
2023-08-19T10:54:33.033Z,100954.69
2023-08-19T10:57:13.723Z,100953.91
2023-08-19T10:59:48.936Z,100953.92
2023-08-19T11:02:22.008Z,100955.39
2023-08-19T11:04:55.105Z,100941.61
2023-08-19T11:07:28.987Z,100955.91
2023-08-19T11:10:01.460Z,100952.83
2023-08-19T11:12:34.280Z,100947.44
2023-08-19T11:15:08.786Z,100952.19
2023-08-19T11:17:41.297Z,100952.04
2023-08-19T11:20:17.397Z,100947.29
2023-08-19T11:22:52.037Z,100946.48
2023-08-19T11:25:35.030Z,100943.04
2023-08-19T11:28:08.377Z,100942.75
2023-08-19T11:30:41.162Z,100943.50
2023-08-19T11:33:17.656Z,100942.61
2023-08-19T11:35:50.352Z,100943.12
2023-08-19T11:38:22.896Z,100944.98
2023-08-19T11:40:55.619Z,100939.95
2023-08-19T11:43:28.605Z,100941.51
2023-08-19T11:46:01.861Z,100941.88
2023-08-19T11:48:34.445Z,100942.42
2023-08-19T11:51:13.072Z,100939.05
2023-08-19T11:53:50.107Z,100938.67
2023-08-19T11:56:24.357Z,100942.28
2023-08-19T11:58:58.406Z,100942.63
2023-08-19T12:01:32.219Z,100939.31
2023-08-19T12:04:11.546Z,100935.45
2023-08-19T12:06:46.128Z,100941.77
2023-08-19T12:09:22.326Z,100935.08
2023-08-19T12:12:08.884Z,100936.02
2023-08-19T12:14:41.623Z,100928.54
2023-08-19T12:17:14.804Z,100929.00
2023-08-19T12:19:47.619Z,100921.89
2023-08-19T12:22:20.423Z,100926.66
2023-08-19T12:24:52.628Z,100923.21
2023-08-19T12:27:25.011Z,100923.86
2023-08-19T12:29:57.115Z,100926.10
2023-08-19T12:32:29.607Z,100928.13
2023-08-19T12:35:02.096Z,100927.16
2023-08-19T12:37:34.620Z,100924.26
2023-08-19T12:40:11.135Z,100920.95
2023-08-19T12:42:48.747Z,100923.39
2023-08-19T12:45:22.283Z,100922.45
2023-08-19T12:47:54.894Z,100924.96
2023-08-19T12:50:27.977Z,100924.52
2023-08-19T12:53:00.303Z,100928.33
2023-08-19T12:55:33.033Z,100926.65
2023-08-19T12:58:06.306Z,100925.81
2023-08-19T13:00:39.512Z,100924.05
2023-08-19T13:03:11.740Z,100913.91
2023-08-19T13:05:44.923Z,100925.33
2023-08-19T13:08:17.334Z,100922.46
2023-08-19T13:10:49.996Z,100925.88
2023-08-19T13:13:22.438Z,100927.95
2023-08-19T13:15:54.784Z,100923.80
2023-08-19T13:18:27.695Z,100924.50
2023-08-19T13:20:59.982Z,100927.07
2023-08-19T13:23:32.591Z,100929.98
2023-08-19T13:26:04.740Z,100927.77
2023-08-19T13:28:36.912Z,100929.46
2023-08-19T13:31:09.007Z,100926.11
2023-08-19T13:33:41.394Z,100927.69
2023-08-19T13:36:13.707Z,100916.27
2023-08-19T13:38:46.426Z,100925.39
2023-08-19T13:41:19.159Z,100919.95
2023-08-19T13:43:51.257Z,100915.55
2023-08-19T13:46:23.721Z,100910.64
2023-08-19T13:48:56.445Z,100911.44
2023-08-19T13:51:28.690Z,100907.23
2023-08-19T13:54:01.273Z,100906.65
2023-08-19T13:56:34.268Z,100910.76
2023-08-19T13:59:06.816Z,100905.04
2023-08-19T14:01:39.258Z,100900.05
2023-08-19T14:04:13.750Z,100903.31
2023-08-19T14:06:46.677Z,100898.38
2023-08-19T14:09:18.908Z,100897.70
2023-08-19T14:11:51.824Z,100892.60
2023-08-19T14:14:24.442Z,100891.24
2023-08-19T14:16:57.865Z,100892.52
2023-08-19T14:19:30.293Z,100892.42
2023-08-19T14:22:02.818Z,100894.55
2023-08-19T14:24:35.238Z,100895.60
2023-08-19T14:27:08.058Z,100894.11
2023-08-19T14:29:40.306Z,100891.63
2023-08-19T14:32:12.483Z,100895.66
2023-08-19T14:34:45.049Z,100896.18
2023-08-19T14:37:17.794Z,100887.95
2023-08-19T14:39:50.322Z,100887.02
2023-08-19T14:42:23.070Z,100883.30
2023-08-19T14:44:55.750Z,100884.24
2023-08-19T14:47:27.935Z,100881.63
2023-08-19T14:50:00.249Z,100882.16
2023-08-19T14:52:33.298Z,100883.83
2023-08-19T14:55:07.694Z,100882.23
2023-08-19T14:57:42.782Z,100881.14
2023-08-19T15:00:18.021Z,100883.73
2023-08-19T15:02:51.930Z,100880.61
2023-08-19T15:05:24.719Z,100891.16
2023-08-19T15:07:57.665Z,100893.36
2023-08-19T15:10:30.181Z,100881.55
2023-08-19T15:13:03.476Z,100888.90
2023-08-19T15:15:36.097Z,100889.34
2023-08-19T15:18:09.010Z,100888.95
2023-08-19T15:20:42.555Z,100888.23
2023-08-19T15:23:33.196Z,100888.18
2023-08-19T15:26:05.556Z,100887.58
2023-08-19T15:28:37.673Z,100886.50
2023-08-19T15:31:09.865Z,100883.25
2023-08-19T15:33:42.119Z,100884.41
2023-08-19T15:36:14.276Z,100887.63
2023-08-19T15:38:46.427Z,100885.16
2023-08-19T15:41:19.301Z,100884.55
2023-08-19T15:43:51.732Z,100885.94
2023-08-19T15:46:24.828Z,100886.84
2023-08-19T15:48:57.119Z,100892.56
2023-08-19T15:51:29.589Z,100889.38
2023-08-19T15:54:01.957Z,100890.11
2023-08-19T15:56:34.387Z,100892.48
2023-08-19T15:59:06.999Z,100895.02
2023-08-19T16:01:39.317Z,100890.12
2023-08-19T16:04:13.141Z,100891.02
2023-08-19T16:06:45.833Z,100890.67
2023-08-19T16:09:18.316Z,100894.30
2023-08-19T16:11:50.975Z,100895.13
2023-08-19T16:14:23.965Z,100894.41
2023-08-19T16:16:57.004Z,100894.02
2023-08-19T16:19:29.979Z,100893.67
2023-08-19T16:22:02.719Z,100893.49
2023-08-19T16:24:34.944Z,100881.65
2023-08-19T16:27:07.686Z,100885.34
2023-08-19T16:29:40.562Z,100894.09
2023-08-19T16:32:12.821Z,100892.55
2023-08-19T16:34:45.158Z,100896.89
2023-08-19T16:37:17.702Z,100897.36
2023-08-19T16:39:50.360Z,100898.66
2023-08-19T16:42:24.385Z,100898.85
2023-08-19T16:44:57.284Z,100901.95
2023-08-19T16:47:30.240Z,100897.86
2023-08-19T16:50:03.178Z,100898.09
2023-08-19T16:52:35.649Z,100899.56
2023-08-19T16:55:09.437Z,100898.91
2023-08-19T16:57:42.091Z,100900.95
2023-08-19T17:00:15.509Z,100880.88
2023-08-19T17:02:47.602Z,100902.12
2023-08-19T17:05:20.608Z,100893.62
2023-08-19T17:07:53.067Z,100903.77
2023-08-19T17:10:27.213Z,100899.20
2023-08-19T17:13:00.170Z,100888.23
2023-08-19T17:15:32.815Z,100904.05
2023-08-19T17:18:05.374Z,100893.46
2023-08-19T17:20:37.493Z,100906.18
2023-08-19T17:23:09.942Z,100906.42
2023-08-19T17:25:43.307Z,100902.95
2023-08-19T17:28:15.568Z,100907.20
2023-08-19T17:30:48.023Z,100904.58
2023-08-19T17:33:20.463Z,100905.79
2023-08-19T17:35:52.891Z,100904.16
2023-08-19T17:38:25.168Z,100907.66
2023-08-19T17:41:02.117Z,100906.54
2023-08-19T17:43:34.882Z,100907.34
2023-08-19T17:46:07.560Z,100901.95
2023-08-19T17:48:39.839Z,100901.90
2023-08-19T17:51:12.274Z,100902.54
2023-08-19T17:53:44.744Z,100906.70
2023-08-19T17:56:17.417Z,100904.58
2023-08-19T17:58:50.039Z,100902.91
2023-08-19T18:01:22.208Z,100906.33
2023-08-19T18:03:54.589Z,100913.63
2023-08-19T18:06:27.101Z,100902.65
2023-08-19T18:08:59.295Z,100916.96
2023-08-19T18:11:31.490Z,100918.31
2023-08-19T18:14:04.255Z,100921.42
2023-08-19T18:16:36.729Z,100920.91
2023-08-19T18:19:13.488Z,100920.81
2023-08-19T18:21:45.563Z,100924.11
2023-08-19T18:24:18.146Z,100926.41
2023-08-19T18:26:50.420Z,100927.98
2023-08-19T18:29:22.860Z,100931.34
2023-08-19T18:31:58.263Z,100933.23
2023-08-19T18:34:31.637Z,100919.02
2023-08-19T18:37:05.766Z,100932.51
2023-08-19T18:39:37.834Z,100938.76
2023-08-19T18:42:10.926Z,100943.05
2023-08-19T18:44:43.426Z,100935.59
2023-08-19T18:47:15.878Z,100947.94
2023-08-19T18:49:50.265Z,100951.77
2023-08-19T18:52:22.347Z,100952.19
2023-08-19T18:54:54.671Z,100954.45
2023-08-19T18:57:26.873Z,100960.10
2023-08-19T18:59:59.658Z,100960.23
2023-08-19T19:02:31.922Z,100959.77
2023-08-19T19:05:06.621Z,100961.66
2023-08-19T19:07:39.368Z,100960.90
2023-08-19T19:10:13.180Z,100960.41
2023-08-19T19:12:46.066Z,100962.85
2023-08-19T19:15:18.872Z,100965.52
2023-08-19T19:17:54.273Z,100967.41
2023-08-19T19:20:27.604Z,100968.82
2023-08-19T19:23:00.087Z,100967.66
2023-08-19T19:25:32.478Z,100967.52
2023-08-19T19:28:04.674Z,100971.73
2023-08-19T19:30:37.347Z,100971.51
2023-08-19T19:33:09.863Z,100972.95
2023-08-19T19:35:43.018Z,100971.42
2023-08-19T19:38:15.262Z,100963.30
2023-08-19T19:40:47.557Z,100977.35
2023-08-19T19:43:20.707Z,100980.16
2023-08-19T19:45:54.790Z,100978.26
2023-08-19T19:48:27.464Z,100980.09
2023-08-19T19:50:59.860Z,100976.38
2023-08-19T19:53:32.398Z,100978.49
2023-08-19T19:56:04.916Z,100979.70
2023-08-19T19:58:37.263Z,100980.86
2023-08-19T20:01:09.438Z,100982.64
2023-08-19T20:03:41.879Z,100983.45
2023-08-19T20:06:14.225Z,100982.07
2023-08-19T20:08:47.337Z,100981.34
2023-08-19T20:11:22.553Z,100984.78
2023-08-19T20:13:55.415Z,100989.05
2023-08-19T20:16:29.468Z,100989.75
2023-08-19T20:19:02.225Z,100990.39
2023-08-19T20:21:34.668Z,100987.41
2023-08-19T20:24:09.222Z,100985.97
2023-08-19T20:26:42.063Z,100984.59
2023-08-19T20:29:14.215Z,100987.01
2023-08-19T20:31:47.349Z,100972.83
2023-08-19T20:34:19.897Z,100983.34
2023-08-19T20:36:52.421Z,100983.06
2023-08-19T20:39:24.780Z,100982.04
2023-08-19T20:41:58.316Z,100979.83
2023-08-19T20:44:30.599Z,100979.70
2023-08-19T20:47:02.964Z,100970.48
2023-08-19T20:49:36.524Z,100979.41
2023-08-19T20:52:09.552Z,100982.52
2023-08-19T20:54:43.885Z,100981.23
2023-08-19T20:57:16.528Z,100980.77
2023-08-19T20:59:50.382Z,100977.47
2023-08-19T21:02:23.411Z,100975.55
2023-08-19T21:04:55.622Z,100973.14
2023-08-19T21:07:28.033Z,100973.52
2023-08-19T21:10:00.387Z,100977.33
2023-08-19T21:12:32.587Z,100973.16
2023-08-19T21:15:04.961Z,100972.25
2023-08-19T21:17:37.826Z,100970.90
2023-08-19T21:20:13.001Z,100969.29
2023-08-19T21:22:45.993Z,100968.63
2023-08-19T21:25:18.938Z,100970.73
2023-08-19T21:27:51.359Z,100958.18
2023-08-19T21:30:23.852Z,100969.67
2023-08-19T21:32:56.275Z,100972.25
2023-08-19T21:35:28.971Z,100972.86
2023-08-19T21:38:01.484Z,100962.66
2023-08-19T21:40:37.831Z,100962.44
2023-08-19T21:43:15.200Z,100972.05
2023-08-19T21:45:48.205Z,100968.35
2023-08-19T21:48:21.395Z,100969.13
2023-08-19T21:50:54.133Z,100965.77
2023-08-19T21:53:27.458Z,100966.58
2023-08-19T21:56:00.231Z,100965.52
2023-08-19T21:58:35.325Z,100964.38
2023-08-19T22:01:07.944Z,100959.73
2023-08-19T22:03:40.266Z,100955.56
2023-08-19T22:06:12.827Z,100953.25
2023-08-19T22:08:45.574Z,100955.80
2023-08-19T22:11:18.814Z,100955.88
2023-08-19T22:13:51.513Z,100953.78
2023-08-19T22:16:26.719Z,100956.54
2023-08-19T22:18:59.452Z,100959.42
2023-08-19T22:21:35.304Z,100960.21
2023-08-19T22:24:09.658Z,100958.68
2023-08-19T22:26:43.283Z,100959.38
2023-08-19T22:29:16.279Z,100961.38
2023-08-19T22:31:48.437Z,100948.16
2023-08-19T22:34:20.794Z,100965.39
2023-08-19T22:36:53.125Z,100964.83
2023-08-19T22:39:25.355Z,100952.83
2023-08-19T22:41:58.574Z,100965.41
2023-08-19T22:44:30.826Z,100966.58
2023-08-19T22:47:02.950Z,100964.10
2023-08-19T22:49:35.617Z,100968.11
2023-08-19T22:52:11.262Z,100957.41
2023-08-19T22:54:44.195Z,100968.01
2023-08-19T22:57:17.036Z,100969.58
2023-08-19T22:59:49.685Z,100970.88
2023-08-19T23:02:22.409Z,100971.72
2023-08-19T23:04:54.986Z,100972.13
2023-08-19T23:07:27.428Z,100974.17
2023-08-19T23:09:59.845Z,100962.89
2023-08-19T23:12:32.178Z,100970.16
2023-08-19T23:15:04.836Z,100972.72
2023-08-19T23:17:37.589Z,100968.01
2023-08-19T23:20:12.951Z,100970.73
2023-08-19T23:22:45.272Z,100969.36
2023-08-19T23:25:17.786Z,100974.55
2023-08-19T23:27:49.866Z,100971.30
2023-08-19T23:30:22.177Z,100970.14
2023-08-19T23:32:54.524Z,100972.68
2023-08-19T23:35:26.831Z,100956.11
2023-08-19T23:37:58.983Z,100969.37
2023-08-19T23:40:31.184Z,100972.16
2023-08-19T23:43:03.500Z,100956.86
2023-08-19T23:45:35.648Z,100966.99
2023-08-19T23:48:09.699Z,100967.14
2023-08-19T23:50:44.058Z,100964.98
2023-08-19T23:53:17.242Z,100962.08
2023-08-19T23:55:50.735Z,100961.49
2023-08-19T23:58:26.087Z,100960.63
